sensor_id;sensor_type;location;lat;lon;timestamp;temperature;humidity
18252;DHT22;26917;52.328;20.878;2022-11-25T12:26:10;0.80;99.90
18252;DHT22;26917;52.328;20.878;2022-11-25T12:30:00;0.80;99.90
18252;DHT22;26917;52.328;20.878;2022-11-25T12:33:24;0.70;99.90
18252;DHT22;26917;52.328;20.878;2022-11-25T12:36:50;0.80;99.90
18252;DHT22;26917;52.328;20.878;2022-11-25T12:40:11;0.80;99.90
18252;DHT22;26917;52.328;20.878;2022-11-25T12:43:24;0.80;99.90
18252;DHT22;26917;52.328;20.878;2022-11-25T12:46:21;0.80;99.90
18252;DHT22;26917;52.328;20.878;2022-11-25T12:49:03;0.80;99.90
18252;DHT22;26917;52.328;20.878;2022-11-25T12:52:15;0.80;99.90
18252;DHT22;26917;52.328;20.878;2022-11-25T12:55:11;0.80;99.90
18252;DHT22;26917;52.328;20.878;2022-11-25T12:58:29;0.70;99.90
18252;DHT22;26917;52.328;20.878;2022-11-25T13:01:53;1.30;99.90
18252;DHT22;26917;52.328;20.878;2022-11-25T13:07:46;0.80;99.90
18252;DHT22;26917;52.328;20.878;2022-11-25T13:10:35;0.80;99.90
18252;DHT22;26917;52.328;20.878;2022-11-25T13:13:31;0.90;99.90
18252;DHT22;26917;52.328;20.878;2022-11-25T13:16:17;0.80;99.90
18252;DHT22;26917;52.328;20.878;2022-11-25T13:18:49;0.70;99.90
18252;DHT22;26917;52.328;20.878;2022-11-25T13:21:21;0.70;99.90
18252;DHT22;26917;52.328;20.878;2022-11-25T13:23:58;0.70;99.90
18252;DHT22;26917;52.328;20.878;2022-11-25T13:26:50;0.80;99.90
18252;DHT22;26917;52.328;20.878;2022-11-25T13:32:38;0.60;99.90
18252;DHT22;26917;52.328;20.878;2022-11-25T13:35:36;0.70;99.90
18252;DHT22;26917;52.328;20.878;2022-11-25T13:38:35;0.80;99.90
18252;DHT22;26917;52.328;20.878;2022-11-25T13:41:22;0.80;99.90
18252;DHT22;26917;52.328;20.878;2022-11-25T13:44:04;0.80;99.90
18252;DHT22;26917;52.328;20.878;2022-11-25T13:46:38;0.80;99.90
18252;DHT22;26917;52.328;20.878;2022-11-25T13:49:21;0.70;99.90
18252;DHT22;26917;52.328;20.878;2022-11-25T13:51:54;0.70;99.90
18252;DHT22;26917;52.328;20.878;2022-11-25T13:54:32;0.70;99.90
18252;DHT22;26917;52.328;20.878;2022-11-25T13:57:20;0.70;99.90
18252;DHT22;26917;52.328;20.878;2022-11-25T13:59:54;0.90;99.90
18252;DHT22;26917;52.328;20.878;2022-11-25T14:02:36;0.70;99.90
18252;DHT22;26917;52.328;20.878;2022-11-25T14:08:26;0.70;99.90
18252;DHT22;26917;52.328;20.878;2022-11-25T14:11:13;0.70;99.90
18252;DHT22;26917;52.328;20.878;2022-11-25T14:13:56;0.90;99.90
18252;DHT22;26917;52.328;20.878;2022-11-25T14:16:41;0.70;99.90
18252;DHT22;26917;52.328;20.878;2022-11-25T14:19:31;0.70;99.90
18252;DHT22;26917;52.328;20.878;2022-11-25T14:22:33;0.70;99.90
18252;DHT22;26917;52.328;20.878;2022-11-25T14:25:18;0.60;99.90
18252;DHT22;26917;52.328;20.878;2022-11-25T14:27:51;0.70;99.90
18252;DHT22;26917;52.328;20.878;2022-11-25T14:30:29;0.80;99.90
18252;DHT22;26917;52.328;20.878;2022-11-25T14:33:01;0.70;99.90
18252;DHT22;26917;52.328;20.878;2022-11-25T14:35:35;0.70;99.90
18252;DHT22;26917;52.328;20.878;2022-11-25T14:38:16;0.60;99.90
18252;DHT22;26917;52.328;20.878;2022-11-25T14:40:50;0.90;99.90
18252;DHT22;26917;52.328;20.878;2022-11-25T14:43:23;0.60;99.90
18252;DHT22;26917;52.328;20.878;2022-11-25T14:46:08;0.70;99.90
18252;DHT22;26917;52.328;20.878;2022-11-25T14:48:37;0.80;99.90
18252;DHT22;26917;52.328;20.878;2022-11-25T14:51:06;0.70;99.90
18252;DHT22;26917;52.328;20.878;2022-11-25T14:53:40;0.70;99.90
18252;DHT22;26917;52.328;20.878;2022-11-25T14:56:16;0.80;99.90
18252;DHT22;26917;52.328;20.878;2022-11-25T14:58:49;0.70;99.90
18252;DHT22;26917;52.328;20.878;2022-11-25T15:01:21;0.70;99.90
18252;DHT22;26917;52.328;20.878;2022-11-25T15:03:59;0.80;99.90
18252;DHT22;26917;52.328;20.878;2022-11-25T15:06:32;0.70;99.90
18252;DHT22;26917;52.328;20.878;2022-11-25T15:09:18;0.70;99.90
18252;DHT22;26917;52.328;20.878;2022-11-25T15:11:51;0.80;99.90
18252;DHT22;26917;52.328;20.878;2022-11-25T15:14:24;0.80;99.90
18252;DHT22;26917;52.328;20.878;2022-11-25T15:16:54;0.80;99.90
18252;DHT22;26917;52.328;20.878;2022-11-25T15:19:25;0.70;99.90
18252;DHT22;26917;52.328;20.878;2022-11-25T15:22:01;1.00;99.90
18252;DHT22;26917;52.328;20.878;2022-11-25T15:25:06;0.80;99.90
18252;DHT22;26917;52.328;20.878;2022-11-25T15:27:43;0.80;99.90
18252;DHT22;26917;52.328;20.878;2022-11-25T15:30:19;0.80;99.90
18252;DHT22;26917;52.328;20.878;2022-11-25T15:32:49;0.80;99.90
18252;DHT22;26917;52.328;20.878;2022-11-25T15:35:19;0.90;99.90
18252;DHT22;26917;52.328;20.878;2022-11-25T15:37:48;0.80;99.90
18252;DHT22;26917;52.328;20.878;2022-11-25T15:40:32;0.80;99.90
18252;DHT22;26917;52.328;20.878;2022-11-25T15:43:05;0.80;99.90
18252;DHT22;26917;52.328;20.878;2022-11-25T15:45:43;0.80;99.90
18252;DHT22;26917;52.328;20.878;2022-11-25T15:48:16;0.70;99.90
18252;DHT22;26917;52.328;20.878;2022-11-25T15:50:45;0.70;99.90
18252;DHT22;26917;52.328;20.878;2022-11-25T15:53:22;0.80;99.90
18252;DHT22;26917;52.328;20.878;2022-11-25T15:56:01;0.80;99.90
18252;DHT22;26917;52.328;20.878;2022-11-25T15:58:29;0.80;99.90
18252;DHT22;26917;52.328;20.878;2022-11-25T16:01:02;0.80;99.90
18252;DHT22;26917;52.328;20.878;2022-11-25T16:03:33;0.70;99.90
18252;DHT22;26917;52.328;20.878;2022-11-25T16:06:16;0.80;99.90
18252;DHT22;26917;52.328;20.878;2022-11-25T16:08:51;0.70;99.90
18252;DHT22;26917;52.328;20.878;2022-11-25T16:11:23;0.70;99.90
18252;DHT22;26917;52.328;20.878;2022-11-25T16:13:52;0.70;99.90
18252;DHT22;26917;52.328;20.878;2022-11-25T16:16:26;0.70;99.90
18252;DHT22;26917;52.328;20.878;2022-11-25T16:19:15;0.70;99.90
18252;DHT22;26917;52.328;20.878;2022-11-25T16:21:57;0.90;99.90
18252;DHT22;26917;52.328;20.878;2022-11-25T16:24:39;0.80;99.90
18252;DHT22;26917;52.328;20.878;2022-11-25T16:27:20;0.80;99.90
18252;DHT22;26917;52.328;20.878;2022-11-25T16:29:53;0.80;99.90
18252;DHT22;26917;52.328;20.878;2022-11-25T16:32:23;0.80;99.90
18252;DHT22;26917;52.328;20.878;2022-11-25T16:34:54;0.80;99.90
18252;DHT22;26917;52.328;20.878;2022-11-25T16:37:24;0.80;99.90
18252;DHT22;26917;52.328;20.878;2022-11-25T16:39:52;0.80;99.90
18252;DHT22;26917;52.328;20.878;2022-11-25T16:42:22;0.90;99.90
18252;DHT22;26917;52.328;20.878;2022-11-25T16:44:51;0.80;99.90
18252;DHT22;26917;52.328;20.878;2022-11-25T16:47:21;0.90;99.90
18252;DHT22;26917;52.328;20.878;2022-11-25T16:49:50;0.90;99.90
18252;DHT22;26917;52.328;20.878;2022-11-25T16:52:19;0.90;99.90
18252;DHT22;26917;52.328;20.878;2022-11-25T16:54:51;0.90;99.90
18252;DHT22;26917;52.328;20.878;2022-11-25T16:57:19;0.90;99.90
18252;DHT22;26917;52.328;20.878;2022-11-25T16:59:53;0.90;99.90
18252;DHT22;26917;52.328;20.878;2022-11-25T17:02:25;1.00;99.90
18252;DHT22;26917;52.328;20.878;2022-11-25T17:05:13;0.90;99.90
18252;DHT22;26917;52.328;20.878;2022-11-25T17:07:43;0.90;99.90
18252;DHT22;26917;52.328;20.878;2022-11-25T17:10:12;0.90;99.90
18252;DHT22;26917;52.328;20.878;2022-11-25T17:12:45;1.10;99.90
18252;DHT22;26917;52.328;20.878;2022-11-25T17:15:19;0.80;99.90
18252;DHT22;26917;52.328;20.878;2022-11-25T17:17:52;0.90;99.90
18252;DHT22;26917;52.328;20.878;2022-11-25T17:20:22;0.90;99.90
18252;DHT22;26917;52.328;20.878;2022-11-25T17:23:11;0.90;99.90
18252;DHT22;26917;52.328;20.878;2022-11-25T17:25:41;0.90;99.90
18252;DHT22;26917;52.328;20.878;2022-11-25T17:28:14;0.90;99.90
18252;DHT22;26917;52.328;20.878;2022-11-25T17:30:46;0.80;99.90
18252;DHT22;26917;52.328;20.878;2022-11-25T17:33:18;0.90;99.90
18252;DHT22;26917;52.328;20.878;2022-11-25T17:35:52;0.80;99.90
18252;DHT22;26917;52.328;20.878;2022-11-25T17:38:21;0.80;99.90
18252;DHT22;26917;52.328;20.878;2022-11-25T17:40:53;0.90;99.90
18252;DHT22;26917;52.328;20.878;2022-11-25T17:43:22;0.70;99.90
18252;DHT22;26917;52.328;20.878;2022-11-25T17:45:52;0.80;99.90
18252;DHT22;26917;52.328;20.878;2022-11-25T17:48:20;0.80;99.90
18252;DHT22;26917;52.328;20.878;2022-11-25T17:50:53;0.80;99.90
18252;DHT22;26917;52.328;20.878;2022-11-25T17:53:22;0.80;99.90
18252;DHT22;26917;52.328;20.878;2022-11-25T17:55:51;0.90;99.90
18252;DHT22;26917;52.328;20.878;2022-11-25T17:58:20;0.90;99.90
18252;DHT22;26917;52.328;20.878;2022-11-25T18:00:51;0.90;99.90
18252;DHT22;26917;52.328;20.878;2022-11-25T18:03:21;1.00;99.90
18252;DHT22;26917;52.328;20.878;2022-11-25T18:05:51;0.90;99.90
18252;DHT22;26917;52.328;20.878;2022-11-25T18:08:19;1.00;99.90
18252;DHT22;26917;52.328;20.878;2022-11-25T18:10:48;0.90;99.90
18252;DHT22;26917;52.328;20.878;2022-11-25T18:13:19;0.90;99.90
18252;DHT22;26917;52.328;20.878;2022-11-25T18:15:52;1.00;99.90
18252;DHT22;26917;52.328;20.878;2022-11-25T18:18:27;1.00;99.90
18252;DHT22;26917;52.328;20.878;2022-11-25T18:20:58;0.90;99.90
18252;DHT22;26917;52.328;20.878;2022-11-25T18:23:30;1.40;99.90
18252;DHT22;26917;52.328;20.878;2022-11-25T18:26:00;0.90;99.90
18252;DHT22;26917;52.328;20.878;2022-11-25T18:28:34;1.00;99.90
18252;DHT22;26917;52.328;20.878;2022-11-25T18:31:04;1.00;99.90
18252;DHT22;26917;52.328;20.878;2022-11-25T18:33:40;1.00;99.90
18252;DHT22;26917;52.328;20.878;2022-11-25T18:36:12;0.70;99.90
18252;DHT22;26917;52.328;20.878;2022-11-25T18:38:41;1.20;99.90
18252;DHT22;26917;52.328;20.878;2022-11-25T18:41:17;1.00;99.90
18252;DHT22;26917;52.328;20.878;2022-11-25T18:43:47;0.90;99.90
18252;DHT22;26917;52.328;20.878;2022-11-25T18:46:19;1.00;99.90
18252;DHT22;26917;52.328;20.878;2022-11-25T18:49:09;0.90;99.90
18252;DHT22;26917;52.328;20.878;2022-11-25T18:51:38;0.90;99.90
18252;DHT22;26917;52.328;20.878;2022-11-25T18:54:07;1.10;99.90
18252;DHT22;26917;52.328;20.878;2022-11-25T18:56:39;0.90;99.90
18252;DHT22;26917;52.328;20.878;2022-11-25T18:59:12;1.10;99.90
18252;DHT22;26917;52.328;20.878;2022-11-25T19:01:43;1.00;99.90
18252;DHT22;26917;52.328;20.878;2022-11-25T19:04:26;1.00;99.90
18252;DHT22;26917;52.328;20.878;2022-11-25T19:06:55;1.00;99.90
18252;DHT22;26917;52.328;20.878;2022-11-25T19:09:24;1.00;99.90
18252;DHT22;26917;52.328;20.878;2022-11-25T19:11:54;1.10;99.90
18252;DHT22;26917;52.328;20.878;2022-11-25T19:14:27;0.90;99.90
18252;DHT22;26917;52.328;20.878;2022-11-25T19:17:03;1.10;99.90
18252;DHT22;26917;52.328;20.878;2022-11-25T19:19:35;1.10;99.90
18252;DHT22;26917;52.328;20.878;2022-11-25T19:22:09;1.10;99.90
18252;DHT22;26917;52.328;20.878;2022-11-25T19:24:38;1.10;99.90
18252;DHT22;26917;52.328;20.878;2022-11-25T19:27:14;1.10;99.90
18252;DHT22;26917;52.328;20.878;2022-11-25T19:29:49;1.10;99.90
18252;DHT22;26917;52.328;20.878;2022-11-25T19:32:22;1.20;99.90
18252;DHT22;26917;52.328;20.878;2022-11-25T19:34:59;1.10;99.90
18252;DHT22;26917;52.328;20.878;2022-11-25T19:37:29;1.10;99.90
18252;DHT22;26917;52.328;20.878;2022-11-25T19:39:58;1.10;99.90
18252;DHT22;26917;52.328;20.878;2022-11-25T19:42:29;1.10;99.90
18252;DHT22;26917;52.328;20.878;2022-11-25T19:44:58;1.10;99.90
18252;DHT22;26917;52.328;20.878;2022-11-25T19:47:29;1.10;99.90
18252;DHT22;26917;52.328;20.878;2022-11-25T19:50:23;1.20;99.90
18252;DHT22;26917;52.328;20.878;2022-11-25T19:52:54;1.10;99.90
18252;DHT22;26917;52.328;20.878;2022-11-25T19:55:25;1.20;99.90
18252;DHT22;26917;52.328;20.878;2022-11-25T19:57:56;1.10;99.90
18252;DHT22;26917;52.328;20.878;2022-11-25T20:00:29;1.10;99.90
18252;DHT22;26917;52.328;20.878;2022-11-25T20:02:58;1.10;99.90
18252;DHT22;26917;52.328;20.878;2022-11-25T20:05:32;1.10;99.90
18252;DHT22;26917;52.328;20.878;2022-11-25T20:08:02;1.10;99.90
18252;DHT22;26917;52.328;20.878;2022-11-25T20:10:33;1.10;99.90
18252;DHT22;26917;52.328;20.878;2022-11-25T20:13:05;1.30;99.90
18252;DHT22;26917;52.328;20.878;2022-11-25T20:15:36;1.20;99.90
18252;DHT22;26917;52.328;20.878;2022-11-25T20:18:06;1.20;99.90
18252;DHT22;26917;52.328;20.878;2022-11-25T20:20:58;1.30;99.90
18252;DHT22;26917;52.328;20.878;2022-11-25T20:23:32;1.20;99.90
18252;DHT22;26917;52.328;20.878;2022-11-25T20:26:15;1.20;99.90
18252;DHT22;26917;52.328;20.878;2022-11-25T20:28:45;1.20;99.90
18252;DHT22;26917;52.328;20.878;2022-11-25T20:31:13;1.10;99.90
18252;DHT22;26917;52.328;20.878;2022-11-25T20:33:42;1.20;99.90
18252;DHT22;26917;52.328;20.878;2022-11-25T20:36:14;1.20;99.90
18252;DHT22;26917;52.328;20.878;2022-11-25T20:38:50;1.20;99.90
18252;DHT22;26917;52.328;20.878;2022-11-25T20:41:21;1.20;99.90
18252;DHT22;26917;52.328;20.878;2022-11-25T20:43:54;1.20;99.90
18252;DHT22;26917;52.328;20.878;2022-11-25T20:46:27;1.20;99.90
18252;DHT22;26917;52.328;20.878;2022-11-25T20:48:59;1.20;99.90
18252;DHT22;26917;52.328;20.878;2022-11-25T20:51:30;1.20;99.90
18252;DHT22;26917;52.328;20.878;2022-11-25T20:53:59;1.20;99.90
18252;DHT22;26917;52.328;20.878;2022-11-25T20:56:29;1.20;99.90
18252;DHT22;26917;52.328;20.878;2022-11-25T20:58:57;1.10;99.90
18252;DHT22;26917;52.328;20.878;2022-11-25T21:01:27;1.20;99.90
18252;DHT22;26917;52.328;20.878;2022-11-25T21:03:58;1.20;99.90
18252;DHT22;26917;52.328;20.878;2022-11-25T21:06:29;1.40;99.90
18252;DHT22;26917;52.328;20.878;2022-11-25T21:09:14;1.30;99.90
18252;DHT22;26917;52.328;20.878;2022-11-25T21:11:45;1.70;99.90
18252;DHT22;26917;52.328;20.878;2022-11-25T21:14:14;1.40;99.90
18252;DHT22;26917;52.328;20.878;2022-11-25T21:16:44;1.30;99.90
18252;DHT22;26917;52.328;20.878;2022-11-25T21:19:12;1.30;99.90
18252;DHT22;26917;52.328;20.878;2022-11-25T21:21:45;1.40;99.90
18252;DHT22;26917;52.328;20.878;2022-11-25T21:24:23;1.30;99.90
18252;DHT22;26917;52.328;20.878;2022-11-25T21:26:53;1.30;99.90
18252;DHT22;26917;52.328;20.878;2022-11-25T21:29:22;1.20;99.90
18252;DHT22;26917;52.328;20.878;2022-11-25T21:31:51;1.20;99.90
18252;DHT22;26917;52.328;20.878;2022-11-25T21:34:19;1.10;99.90
18252;DHT22;26917;52.328;20.878;2022-11-25T21:36:50;1.00;99.90
18252;DHT22;26917;52.328;20.878;2022-11-25T21:39:26;1.10;99.90
18252;DHT22;26917;52.328;20.878;2022-11-25T21:41:58;1.20;99.90
18252;DHT22;26917;52.328;20.878;2022-11-25T21:44:30;1.20;99.90
18252;DHT22;26917;52.328;20.878;2022-11-25T21:46:59;1.50;99.90
18252;DHT22;26917;52.328;20.878;2022-11-25T21:49:28;1.20;99.90
18252;DHT22;26917;52.328;20.878;2022-11-25T21:54:58;1.60;99.90
18252;DHT22;26917;52.328;20.878;2022-11-25T21:57:27;1.20;99.90
18252;DHT22;26917;52.328;20.878;2022-11-25T21:59:56;1.20;99.90
18252;DHT22;26917;52.328;20.878;2022-11-25T22:02:25;1.20;99.90
18252;DHT22;26917;52.328;20.878;2022-11-25T22:04:58;1.30;99.90
18252;DHT22;26917;52.328;20.878;2022-11-25T22:07:26;1.30;99.90
18252;DHT22;26917;52.328;20.878;2022-11-25T22:09:58;1.20;99.90
18252;DHT22;26917;52.328;20.878;2022-11-25T22:12:29;1.40;99.90
18252;DHT22;26917;52.328;20.878;2022-11-25T22:15:04;1.20;99.90
18252;DHT22;26917;52.328;20.878;2022-11-25T22:17:34;1.20;99.90
18252;DHT22;26917;52.328;20.878;2022-11-25T22:20:04;1.20;99.90
18252;DHT22;26917;52.328;20.878;2022-11-25T22:22:41;1.20;99.90
18252;DHT22;26917;52.328;20.878;2022-11-25T22:25:13;1.20;99.90
18252;DHT22;26917;52.328;20.878;2022-11-25T22:27:42;1.30;99.90
18252;DHT22;26917;52.328;20.878;2022-11-25T22:30:15;1.20;99.90
18252;DHT22;26917;52.328;20.878;2022-11-25T22:32:44;1.30;99.90
18252;DHT22;26917;52.328;20.878;2022-11-25T22:35:15;1.20;99.90
18252;DHT22;26917;52.328;20.878;2022-11-25T22:37:44;1.30;99.90
18252;DHT22;26917;52.328;20.878;2022-11-25T22:40:23;1.30;99.90
18252;DHT22;26917;52.328;20.878;2022-11-25T22:42:51;1.30;99.90
18252;DHT22;26917;52.328;20.878;2022-11-25T22:45:26;1.10;99.90
18252;DHT22;26917;52.328;20.878;2022-11-25T22:47:59;1.30;99.90
18252;DHT22;26917;52.328;20.878;2022-11-25T22:50:29;1.30;99.90
18252;DHT22;26917;52.328;20.878;2022-11-25T22:52:59;1.30;99.90
18252;DHT22;26917;52.328;20.878;2022-11-25T22:55:31;1.30;99.90
18252;DHT22;26917;52.328;20.878;2022-11-25T22:58:00;1.30;99.90
18252;DHT22;26917;52.328;20.878;2022-11-25T23:00:32;1.30;99.90
18252;DHT22;26917;52.328;20.878;2022-11-25T23:03:04;1.40;99.90
18252;DHT22;26917;52.328;20.878;2022-11-25T23:05:34;1.50;99.90
18252;DHT22;26917;52.328;20.878;2022-11-25T23:08:10;1.40;99.90
18252;DHT22;26917;52.328;20.878;2022-11-25T23:10:40;1.30;99.90
18252;DHT22;26917;52.328;20.878;2022-11-25T23:13:09;1.70;99.90
18252;DHT22;26917;52.328;20.878;2022-11-25T23:15:40;1.40;99.90
18252;DHT22;26917;52.328;20.878;2022-11-25T23:18:13;1.40;99.90
18252;DHT22;26917;52.328;20.878;2022-11-25T23:20:42;1.40;99.90
18252;DHT22;26917;52.328;20.878;2022-11-25T23:23:16;1.40;99.90
18252;DHT22;26917;52.328;20.878;2022-11-25T23:28:45;1.30;99.90
18252;DHT22;26917;52.328;20.878;2022-11-25T23:31:15;1.40;99.90
18252;DHT22;26917;52.328;20.878;2022-11-25T23:33:45;1.40;99.90
18252;DHT22;26917;52.328;20.878;2022-11-25T23:36:20;1.40;99.90
18252;DHT22;26917;52.328;20.878;2022-11-25T23:38:52;1.40;99.90
18252;DHT22;26917;52.328;20.878;2022-11-25T23:41:26;1.40;99.90
18252;DHT22;26917;52.328;20.878;2022-11-25T23:43:59;1.40;99.90
18252;DHT22;26917;52.328;20.878;2022-11-25T23:46:31;1.40;99.90
18252;DHT22;26917;52.328;20.878;2022-11-25T23:49:02;1.30;99.90
18252;DHT22;26917;52.328;20.878;2022-11-25T23:51:31;1.30;99.90
18252;DHT22;26917;52.328;20.878;2022-11-25T23:54:00;1.30;99.90
18252;DHT22;26917;52.328;20.878;2022-11-25T23:56:28;1.40;99.90
18252;DHT22;26917;52.328;20.878;2022-11-25T23:58:59;1.30;99.90
